createdAt,value
2018-09-17T00:01:32.783Z,14.63
2018-09-17T00:04:01.465Z,15.03
2018-09-17T00:06:31.787Z,15.48
2018-09-17T00:09:00.610Z,15.50
2018-09-17T00:11:29.256Z,15.40
2018-09-17T00:13:57.990Z,15.08
2018-09-17T00:16:26.630Z,15.70
2018-09-17T00:18:56.989Z,15.05
2018-09-17T00:21:25.969Z,14.33
2018-09-17T00:23:57.228Z,14.47
2018-09-17T00:26:25.889Z,14.27
2018-09-17T00:28:54.631Z,15.23
2018-09-17T00:31:23.368Z,15.38
2018-09-17T00:33:52.555Z,14.83
2018-09-17T00:36:21.317Z,15.07
2018-09-17T00:38:50.005Z,14.53
2018-09-17T00:41:18.687Z,16.23
2018-09-17T00:43:49.099Z,15.40
2018-09-17T00:46:19.537Z,15.48
2018-09-17T00:48:48.203Z,15.15
2018-09-17T00:51:17.660Z,15.30
2018-09-17T00:53:46.434Z,15.83
2018-09-17T00:56:15.118Z,15.65
2018-09-17T00:58:46.772Z,15.15
2018-09-17T01:01:15.570Z,15.85
2018-09-17T01:03:44.201Z,16.40
2018-09-17T01:06:14.150Z,15.90
2018-09-17T01:08:42.872Z,16.93
2018-09-17T01:11:14.041Z,17.20
2018-09-17T01:13:42.988Z,16.90
2018-09-17T01:16:11.798Z,16.97
2018-09-17T01:18:40.657Z,16.52
2018-09-17T01:21:09.296Z,17.25
2018-09-17T01:23:40.482Z,17.60
2018-09-17T01:26:09.151Z,16.32
2018-09-17T01:28:37.863Z,16.50
2018-09-17T01:31:06.590Z,16.87
2018-09-17T01:33:35.416Z,16.77
2018-09-17T01:36:05.346Z,16.48
2018-09-17T01:38:34.132Z,17.40
2018-09-17T01:41:06.327Z,16.60
2018-09-17T01:43:35.203Z,17.40
2018-09-17T01:46:03.941Z,16.93
2018-09-17T01:48:32.650Z,17.75
2018-09-17T01:51:01.475Z,17.90
2018-09-17T01:53:30.108Z,17.15
2018-09-17T01:55:58.842Z,17.52
2018-09-17T01:58:27.540Z,17.70
2018-09-17T02:00:56.820Z,17.57
2018-09-17T02:03:25.546Z,18.03
2018-09-17T02:05:55.047Z,32.80
2018-09-17T02:08:23.751Z,18.25
2018-09-17T02:10:52.495Z,18.02
2018-09-17T02:13:21.332Z,18.17
2018-09-17T02:15:50.157Z,17.73
2018-09-17T02:18:19.137Z,18.82
2018-09-17T02:20:48.065Z,18.40
2018-09-17T02:23:16.758Z,18.15
2018-09-17T02:25:45.467Z,18.25
2018-09-17T02:28:14.387Z,18.15
2018-09-17T02:30:43.124Z,18.48
2018-09-17T02:33:12.227Z,18.95
2018-09-17T02:35:41.013Z,18.37
2018-09-17T02:38:09.717Z,17.87
2018-09-17T02:40:41.462Z,17.50
2018-09-17T02:43:12.418Z,17.73
2018-09-17T02:45:41.448Z,17.80
2018-09-17T02:48:10.122Z,17.97
2018-09-17T02:50:41.024Z,18.02
2018-09-17T02:53:11.249Z,18.42
2018-09-17T02:55:39.984Z,17.52
2018-09-17T02:58:09.886Z,17.90
2018-09-17T03:00:38.626Z,17.90
2018-09-17T03:03:07.519Z,17.80
2018-09-17T03:05:36.637Z,22.87
2018-09-17T03:08:05.501Z,18.17
2018-09-17T03:10:34.307Z,18.33
2018-09-17T03:13:03.134Z,19.25
2018-09-17T03:15:42.942Z,19.12
2018-09-17T03:18:11.689Z,18.80
2018-09-17T03:20:40.362Z,18.10
2018-09-17T03:23:09.073Z,18.32
2018-09-17T03:25:37.848Z,18.50
2018-09-17T03:28:06.527Z,18.07
2018-09-17T03:30:35.630Z,18.42
2018-09-17T03:33:04.518Z,18.60
2018-09-17T03:35:33.309Z,18.15
2018-09-17T03:38:17.804Z,16.70
2018-09-17T03:40:46.471Z,20.48
2018-09-17T03:43:15.194Z,17.12
2018-09-17T03:45:43.936Z,17.52
2018-09-17T03:48:12.724Z,17.12
2018-09-17T03:50:41.350Z,19.00
2018-09-17T03:53:10.220Z,18.80
2018-09-17T03:55:38.982Z,17.12
2018-09-17T03:58:07.828Z,16.60
2018-09-17T04:00:36.485Z,16.70
2018-09-17T04:03:05.187Z,16.97
2018-09-17T04:05:33.873Z,16.55
2018-09-17T04:08:02.907Z,16.40
2018-09-17T04:10:31.792Z,18.10
2018-09-17T04:13:00.637Z,16.20
2018-09-17T04:15:29.873Z,16.93
2018-09-17T04:17:58.924Z,16.67
2018-09-17T04:20:27.759Z,17.23
2018-09-17T04:22:57.243Z,16.62
2018-09-17T04:25:26.237Z,17.17
2018-09-17T04:27:54.936Z,17.45
2018-09-17T04:30:24.066Z,17.45
2018-09-17T04:32:53.543Z,17.13
2018-09-17T04:35:22.734Z,16.85
2018-09-17T04:37:51.454Z,19.45
2018-09-17T04:40:20.142Z,17.05
2018-09-17T04:42:48.996Z,16.37
2018-09-17T04:45:18.552Z,17.55
2018-09-17T04:47:47.423Z,17.75
2018-09-17T04:50:16.120Z,16.87
2018-09-17T04:52:46.880Z,18.10
2018-09-17T04:55:15.588Z,18.45
2018-09-17T04:57:44.755Z,19.23
2018-09-17T05:00:13.602Z,18.67
2018-09-17T05:02:42.393Z,18.30
2018-09-17T05:05:11.150Z,17.87
2018-09-17T05:07:39.927Z,18.67
2018-09-17T05:10:08.660Z,19.25
2018-09-17T05:12:37.317Z,18.62
2018-09-17T05:15:08.011Z,18.60
2018-09-17T05:17:36.795Z,18.82
2018-09-17T05:20:05.533Z,19.40
2018-09-17T05:22:34.385Z,20.48
2018-09-17T05:25:03.081Z,20.08
2018-09-17T05:27:36.177Z,19.15
2018-09-17T05:30:05.136Z,19.13
2018-09-17T05:32:39.677Z,19.25
2018-09-17T05:35:14.525Z,20.02
2018-09-17T05:37:43.276Z,22.07
2018-09-17T05:40:11.924Z,20.50
2018-09-17T05:42:40.670Z,19.45
2018-09-17T05:45:09.351Z,19.00
2018-09-17T05:47:38.039Z,19.43
2018-09-17T05:50:06.832Z,19.80
2018-09-17T05:52:35.512Z,19.40
2018-09-17T05:55:04.394Z,21.30
2018-09-17T05:57:33.167Z,25.77
2018-09-17T06:00:02.382Z,19.05
2018-09-17T06:02:31.103Z,18.48
2018-09-17T06:04:59.767Z,19.60
2018-09-17T06:07:29.478Z,19.33
2018-09-17T06:09:58.531Z,18.80
2018-09-17T06:12:27.350Z,20.10
2018-09-17T06:14:59.243Z,21.45
2018-09-17T06:17:27.968Z,20.15
2018-09-17T06:19:56.699Z,19.23
2018-09-17T06:22:25.357Z,19.25
2018-09-17T06:24:54.042Z,20.77
2018-09-17T06:27:22.755Z,21.17
2018-09-17T06:29:52.264Z,20.65
2018-09-17T06:32:26.089Z,20.93
2018-09-17T06:34:55.377Z,21.25
2018-09-17T06:37:24.225Z,21.52
2018-09-17T06:39:52.833Z,24.43
2018-09-17T06:42:22.036Z,22.70
2018-09-17T06:44:59.958Z,25.85
2018-09-17T06:47:33.784Z,25.02
2018-09-17T06:50:02.644Z,24.97
2018-09-17T06:52:31.659Z,25.45
2018-09-17T06:55:00.359Z,25.00
2018-09-17T06:57:29.021Z,23.83
2018-09-17T07:00:01.307Z,24.85
2018-09-17T07:02:30.785Z,24.87
2018-09-17T07:05:00.462Z,24.35
2018-09-17T07:07:31.561Z,24.37
2018-09-17T07:10:00.388Z,24.53
2018-09-17T07:12:29.113Z,24.80
2018-09-17T07:14:57.929Z,25.25
2018-09-17T07:17:26.561Z,24.87
2018-09-17T07:19:55.673Z,24.43
2018-09-17T07:22:24.825Z,24.23
2018-09-17T07:24:55.041Z,24.98
2018-09-17T07:27:25.303Z,24.63
2018-09-17T07:29:54.158Z,25.77
2018-09-17T07:32:24.258Z,26.65
2018-09-17T07:34:52.942Z,23.85
2018-09-17T07:37:21.903Z,24.63
2018-09-17T07:39:50.879Z,25.68
2018-09-17T07:42:19.685Z,28.67
2018-09-17T07:44:48.735Z,41.68
2018-09-17T07:47:17.575Z,49.18
2018-09-17T07:49:46.276Z,49.33
2018-09-17T07:52:15.323Z,50.63
2018-09-17T07:54:44.028Z,48.13
2018-09-17T07:57:12.771Z,56.50
2018-09-17T07:59:41.444Z,53.25
2018-09-17T08:02:10.348Z,55.63
2018-09-17T08:04:39.056Z,52.58
2018-09-17T08:07:08.534Z,53.80
2018-09-17T08:09:38.697Z,45.58
2018-09-17T08:12:07.773Z,45.48
2018-09-17T08:14:37.095Z,47.65
2018-09-17T08:17:06.283Z,51.28
2018-09-17T08:19:35.869Z,50.83
2018-09-17T08:22:05.174Z,53.50
2018-09-17T08:26:04.000Z,47.83
2018-09-17T08:28:33.060Z,46.40
2018-09-17T08:31:02.373Z,49.55
2018-09-17T08:33:31.645Z,47.75
2018-09-17T08:36:01.454Z,44.77
2018-09-17T08:38:31.345Z,40.15
2018-09-17T08:41:00.228Z,35.60
2018-09-17T08:43:29.060Z,33.85
2018-09-17T08:45:57.961Z,35.90
2018-09-17T08:48:27.207Z,34.20
2018-09-17T08:50:56.045Z,35.92
2018-09-17T08:53:26.574Z,37.98
2018-09-17T08:56:04.555Z,34.98
2018-09-17T08:58:34.824Z,33.73
2018-09-17T09:01:08.182Z,32.45
2018-09-17T09:03:39.028Z,33.42
2018-09-17T09:06:13.085Z,29.80
2018-09-17T09:08:42.703Z,26.80
2018-09-17T09:11:25.636Z,26.42
2018-09-17T09:13:56.757Z,23.93
2018-09-17T09:16:25.935Z,26.30
2018-09-17T09:18:55.805Z,29.00
2018-09-17T09:21:31.340Z,29.12
2018-09-17T09:24:00.448Z,27.37
2018-09-17T09:26:30.210Z,24.02
2018-09-17T09:28:59.268Z,25.02
2018-09-17T09:31:28.609Z,26.63
2018-09-17T09:34:00.208Z,28.10
2018-09-17T09:36:29.168Z,22.00
2018-09-17T09:38:59.983Z,24.60
2018-09-17T09:41:28.805Z,20.62
2018-09-17T09:43:58.365Z,21.53
2018-09-17T09:46:27.483Z,23.42
2018-09-17T09:48:56.381Z,22.95
2018-09-17T09:51:31.011Z,21.17
2018-09-17T09:54:09.900Z,21.75
2018-09-17T09:56:40.220Z,20.90
2018-09-17T09:59:08.580Z,20.60
2018-09-17T10:01:44.090Z,23.70
2018-09-17T10:04:18.317Z,21.10
2018-09-17T10:06:47.039Z,19.98
2018-09-17T10:09:21.581Z,21.05
2018-09-17T10:11:56.605Z,20.25
2018-09-17T10:14:30.589Z,20.32
2018-09-17T10:17:04.827Z,20.83
2018-09-17T10:19:34.073Z,23.87
2018-09-17T10:22:02.875Z,24.05
2018-09-17T10:24:31.621Z,23.00
2018-09-17T10:27:04.189Z,29.20
2018-09-17T10:29:32.911Z,26.35
2018-09-17T10:32:01.687Z,26.50
2018-09-17T10:34:30.487Z,27.62
2018-09-17T10:36:59.852Z,30.70
2018-09-17T10:39:28.590Z,30.57
2018-09-17T10:41:57.375Z,29.75
2018-09-17T10:44:26.172Z,29.12
2018-09-17T10:46:55.550Z,29.93
2018-09-17T10:49:24.285Z,27.70
2018-09-17T10:51:53.119Z,26.55
2018-09-17T10:54:21.878Z,26.12
2018-09-17T10:56:50.701Z,27.17
2018-09-17T10:59:19.430Z,27.00
2018-09-17T11:01:48.294Z,25.87
2018-09-17T11:04:17.026Z,28.07
2018-09-17T11:06:45.920Z,25.82
2018-09-17T11:09:17.396Z,24.90
2018-09-17T11:11:46.192Z,29.00
2018-09-17T11:14:14.856Z,22.85
2018-09-17T11:16:43.782Z,22.02
2018-09-17T11:19:12.512Z,21.42
2018-09-17T11:21:42.069Z,17.92
2018-09-17T11:24:14.416Z,16.42
2018-09-17T11:26:53.382Z,18.27
2018-09-17T11:29:28.593Z,15.35
2018-09-17T11:31:57.444Z,14.67
2018-09-17T11:34:32.465Z,13.35
2018-09-17T11:37:05.299Z,12.10
2018-09-17T11:39:34.127Z,12.65
2018-09-17T11:42:03.043Z,11.45
2018-09-17T11:44:33.214Z,13.30
2018-09-17T11:47:04.225Z,11.30
2018-09-17T11:49:33.394Z,10.85
2018-09-17T11:52:02.145Z,11.40
2018-09-17T11:54:31.102Z,9.83
2018-09-17T11:56:59.781Z,11.30
2018-09-17T11:59:29.559Z,10.75
2018-09-17T12:02:05.897Z,12.43
2018-09-17T12:05:05.529Z,10.15
2018-09-17T12:07:40.065Z,9.73
2018-09-17T12:10:11.118Z,10.30
2018-09-17T12:12:40.278Z,9.50
2018-09-17T12:15:09.474Z,11.88
2018-09-17T12:17:38.346Z,10.90
2018-09-17T12:20:07.390Z,10.82
2018-09-17T12:22:44.490Z,10.68
2018-09-17T12:25:18.141Z,11.08
2018-09-17T12:27:47.189Z,12.58
2018-09-17T12:30:15.983Z,11.25
2018-09-17T12:32:45.290Z,10.05
2018-09-17T12:35:14.013Z,8.75
2018-09-17T12:37:46.052Z,8.00
2018-09-17T12:40:14.779Z,8.63
2018-09-17T12:42:43.696Z,42.23
2018-09-17T12:45:12.599Z,7.53
2018-09-17T12:47:41.317Z,10.50
2018-09-17T12:50:10.025Z,7.60
2018-09-17T12:52:38.854Z,8.03
2018-09-17T12:55:08.378Z,7.85
2018-09-17T12:57:37.124Z,7.80
2018-09-17T13:00:08.711Z,7.72
2018-09-17T13:02:41.011Z,7.67
2018-09-17T13:05:10.063Z,7.10
2018-09-17T13:07:39.272Z,7.67
2018-09-17T13:10:08.189Z,6.47
2018-09-17T13:12:37.077Z,6.33
2018-09-17T13:15:06.303Z,6.15
2018-09-17T13:17:34.977Z,7.50
2018-09-17T13:20:03.821Z,6.50
2018-09-17T13:22:32.712Z,6.45
2018-09-17T13:25:09.309Z,6.70
2018-09-17T13:27:38.040Z,6.90
2018-09-17T13:30:07.337Z,7.60
2018-09-17T13:32:36.978Z,7.40
2018-09-17T13:35:10.054Z,5.92
2018-09-17T13:37:44.327Z,6.87
2018-09-17T13:40:13.977Z,7.73
2018-09-17T13:42:42.679Z,6.30
2018-09-17T13:45:11.519Z,6.40
2018-09-17T13:47:41.073Z,7.15
2018-09-17T13:50:09.773Z,5.95
2018-09-17T13:52:38.429Z,6.22
2018-09-17T13:55:08.877Z,8.68
2018-09-17T13:57:37.640Z,8.40
2018-09-17T14:00:06.680Z,5.97
2018-09-17T14:02:35.669Z,7.37
2018-09-17T14:05:04.515Z,6.00
2018-09-17T14:07:33.375Z,6.30
2018-09-17T14:10:02.745Z,5.85
2018-09-17T14:12:32.983Z,5.97
2018-09-17T14:15:01.667Z,5.70
2018-09-17T14:17:30.603Z,5.30
2018-09-17T14:19:59.253Z,6.25
2018-09-17T14:22:28.010Z,6.72
2018-09-17T14:24:56.672Z,5.80
2018-09-17T14:27:25.515Z,6.03
2018-09-17T14:29:56.741Z,6.53
2018-09-17T14:32:32.887Z,7.20
2018-09-17T14:35:05.392Z,5.58
2018-09-17T14:37:34.430Z,5.97
2018-09-17T14:40:03.280Z,6.87
2018-09-17T14:42:36.175Z,5.87
2018-09-17T14:45:07.048Z,7.00
2018-09-17T14:47:36.109Z,6.08
2018-09-17T14:50:05.468Z,5.62
2018-09-17T14:52:34.390Z,6.12
2018-09-17T14:55:09.560Z,6.45
2018-09-17T14:57:45.509Z,6.10
2018-09-17T15:00:20.050Z,6.00
2018-09-17T15:02:48.739Z,6.37
2018-09-17T15:05:17.449Z,6.65
2018-09-17T15:07:46.206Z,6.78
2018-09-17T15:10:21.605Z,5.17
2018-09-17T15:12:59.044Z,5.00
2018-09-17T15:15:28.455Z,5.90
2018-09-17T15:17:57.153Z,5.47
2018-09-17T15:20:26.026Z,4.97
2018-09-17T15:22:55.110Z,6.47
2018-09-17T15:25:28.488Z,5.33
2018-09-17T15:27:57.768Z,5.30
2018-09-17T15:30:26.392Z,6.92
2018-09-17T15:32:55.079Z,5.27
2018-09-17T15:35:23.867Z,5.40
2018-09-17T15:37:52.882Z,6.97
2018-09-17T15:40:21.722Z,5.43
2018-09-17T15:42:50.841Z,5.10
2018-09-17T15:45:19.907Z,5.30
2018-09-17T15:47:48.570Z,6.12
2018-09-17T15:50:19.838Z,6.53
2018-09-17T15:52:48.537Z,6.05
2018-09-17T15:55:17.254Z,6.43
2018-09-17T15:57:46.027Z,6.83
2018-09-17T16:00:14.956Z,7.73
2018-09-17T16:02:44.877Z,7.85
2018-09-17T16:05:13.555Z,5.87
2018-09-17T16:07:43.557Z,6.00
2018-09-17T16:10:15.690Z,6.20
2018-09-17T16:12:44.787Z,7.05
2018-09-17T16:15:13.529Z,7.22
2018-09-17T16:17:42.831Z,7.40
2018-09-17T16:20:21.471Z,6.30
2018-09-17T16:23:13.584Z,10.15
2018-09-17T16:25:42.976Z,10.43
2018-09-17T16:28:11.953Z,7.17
2018-09-17T16:30:40.708Z,9.98
2018-09-17T16:33:12.207Z,10.57
2018-09-17T16:35:43.413Z,7.00
2018-09-17T16:38:13.062Z,8.40
2018-09-17T16:40:41.894Z,7.87
2018-09-17T16:43:11.019Z,8.05
2018-09-17T16:45:40.722Z,6.45
2018-09-17T16:48:09.963Z,9.20
2018-09-17T16:50:41.935Z,6.97
2018-09-17T16:53:14.442Z,8.77
2018-09-17T16:55:51.333Z,6.30
2018-09-17T16:58:20.882Z,7.60
2018-09-17T17:00:51.322Z,6.00
2018-09-17T17:03:20.324Z,7.30
2018-09-17T17:05:50.746Z,9.03
2018-09-17T17:08:19.900Z,7.53
2018-09-17T17:10:48.715Z,9.45
2018-09-17T17:13:17.546Z,9.00
2018-09-17T17:15:49.469Z,9.63
2018-09-17T17:18:20.256Z,10.20
2018-09-17T17:20:49.252Z,9.70
2018-09-17T17:23:18.262Z,8.43
2018-09-17T17:25:47.160Z,6.93
2018-09-17T17:28:16.391Z,7.20
2018-09-17T17:30:52.664Z,8.68
2018-09-17T17:33:40.219Z,8.87
2018-09-17T17:36:21.770Z,11.57
2018-09-17T17:38:50.904Z,8.73
2018-09-17T17:41:25.211Z,9.33
2018-09-17T17:43:55.642Z,8.53
2018-09-17T17:46:24.617Z,7.50
2018-09-17T17:48:53.593Z,7.40
2018-09-17T17:51:23.232Z,8.53
2018-09-17T17:53:52.287Z,8.30
2018-09-17T17:56:21.619Z,7.72
2018-09-17T17:58:50.607Z,8.78
2018-09-17T18:01:19.600Z,10.23
2018-09-17T18:03:48.575Z,8.63
2018-09-17T18:06:17.804Z,8.55
2018-09-17T18:08:47.646Z,7.83
2018-09-17T18:11:16.401Z,9.03
2018-09-17T18:13:45.482Z,10.68
2018-09-17T18:16:17.039Z,8.38
2018-09-17T18:18:45.855Z,8.57
2018-09-17T18:21:14.620Z,9.28
2018-09-17T18:23:43.453Z,10.37
2018-09-17T18:26:12.115Z,10.00
2018-09-17T18:28:41.168Z,13.67
2018-09-17T18:31:11.339Z,14.00
2018-09-17T18:33:40.223Z,15.20
2018-09-17T18:36:09.137Z,11.65
2018-09-17T18:38:37.901Z,9.88
2018-09-17T18:41:06.577Z,9.38
2018-09-17T18:43:35.237Z,9.33
2018-09-17T18:46:03.827Z,8.13
2018-09-17T18:48:32.733Z,8.27
2018-09-17T18:51:01.855Z,7.97
2018-09-17T18:53:30.540Z,8.15
2018-09-17T18:55:59.415Z,9.77
2018-09-17T18:58:28.282Z,8.30
2018-09-17T19:00:57.237Z,8.93
2018-09-17T19:03:26.047Z,8.90
2018-09-17T19:05:54.879Z,9.78
2018-09-17T19:08:27.424Z,8.88
2018-09-17T19:10:57.388Z,8.90
2018-09-17T19:13:26.076Z,8.33
2018-09-17T19:15:57.034Z,8.10
2018-09-17T19:18:25.766Z,9.20
2018-09-17T19:20:54.765Z,7.93
2018-09-17T19:23:28.540Z,8.30
2018-09-17T19:25:57.285Z,8.53
2018-09-17T19:28:34.718Z,8.90
2018-09-17T19:31:03.525Z,9.25
2018-09-17T19:33:32.780Z,9.15
2018-09-17T19:36:01.464Z,8.43
2018-09-17T19:38:36.013Z,9.60
2018-09-17T19:41:09.066Z,10.75
2018-09-17T19:43:37.938Z,9.28
2018-09-17T19:46:12.783Z,9.08
2018-09-17T19:48:41.498Z,11.88
2018-09-17T19:51:15.996Z,11.70
2018-09-17T19:53:46.745Z,11.33
2018-09-17T19:56:15.566Z,9.48
2018-09-17T19:58:49.436Z,10.23
2018-09-17T20:01:18.210Z,9.75
2018-09-17T20:03:47.484Z,12.25
2018-09-17T20:06:25.784Z,9.08
2018-09-17T20:08:55.092Z,9.90
2018-09-17T20:11:24.205Z,9.58
2018-09-17T20:13:52.743Z,9.58
2018-09-17T20:16:24.407Z,10.55
2018-09-17T20:18:54.057Z,9.93
2018-09-17T20:21:23.418Z,9.03
2018-09-17T20:23:52.776Z,10.07
2018-09-17T20:26:21.939Z,9.15
2018-09-17T20:28:51.690Z,10.32
2018-09-17T20:31:28.421Z,10.30
2018-09-17T20:33:58.228Z,15.15
2018-09-17T20:36:28.423Z,11.10
2018-09-17T20:38:58.968Z,10.23
2018-09-17T20:41:28.388Z,10.40
2018-09-17T20:43:58.675Z,11.57
2018-09-17T20:46:28.645Z,10.00
2018-09-17T20:48:57.294Z,10.18
2018-09-17T20:51:30.373Z,11.03
2018-09-17T20:53:59.255Z,10.30
2018-09-17T20:56:31.131Z,10.23
2018-09-17T20:58:59.819Z,10.35
2018-09-17T21:01:28.499Z,10.80
2018-09-17T21:03:57.365Z,10.32
2018-09-17T21:06:26.127Z,10.58
2018-09-17T21:08:54.657Z,10.43
2018-09-17T21:11:24.195Z,10.08
2018-09-17T21:13:52.758Z,10.95
2018-09-17T21:16:23.582Z,10.72
2018-09-17T21:18:52.513Z,12.90
2018-09-17T21:21:21.186Z,10.75
2018-09-17T21:23:52.652Z,11.30
2018-09-17T21:26:23.839Z,10.48
2018-09-17T21:28:52.529Z,10.40
2018-09-17T21:31:24.134Z,10.80
2018-09-17T21:33:57.214Z,10.98
2018-09-17T21:36:30.297Z,10.05
2018-09-17T21:39:04.142Z,10.78
2018-09-17T21:41:33.983Z,10.15
2018-09-17T21:44:10.297Z,10.93
2018-09-17T21:46:42.779Z,10.35
2018-09-17T21:49:11.673Z,10.03
2018-09-17T21:51:45.074Z,10.53
2018-09-17T21:54:14.106Z,11.43
2018-09-17T21:56:42.833Z,9.83
2018-09-17T21:59:22.706Z,13.78
2018-09-17T22:01:53.552Z,10.63
2018-09-17T22:04:23.232Z,11.35
2018-09-17T22:06:55.036Z,10.90
2018-09-17T22:09:26.720Z,10.93
2018-09-17T22:11:55.355Z,11.48
2018-09-17T22:14:24.944Z,12.10
2018-09-17T22:16:53.583Z,10.53
2018-09-17T22:19:25.640Z,10.55
2018-09-17T22:21:54.322Z,11.48
2018-09-17T22:24:23.443Z,11.25
2018-09-17T22:26:52.520Z,11.55
2018-09-17T22:29:21.136Z,11.25
2018-09-17T22:31:49.743Z,10.90
2018-09-17T22:34:19.043Z,10.98
2018-09-17T22:36:47.990Z,11.08
2018-09-17T22:39:16.612Z,11.68
2018-09-17T22:41:45.396Z,11.10
2018-09-17T22:44:13.982Z,11.83
2018-09-17T22:46:43.151Z,10.63
2018-09-17T22:49:11.659Z,11.38
2018-09-17T22:51:42.183Z,11.70
2018-09-17T22:54:11.530Z,11.57
2018-09-17T22:56:51.054Z,11.33
2018-09-17T22:59:19.646Z,11.30
2018-09-17T23:01:48.291Z,11.33
2018-09-17T23:04:18.459Z,11.93
2018-09-17T23:06:47.107Z,11.20
2018-09-17T23:09:15.714Z,11.43
2018-09-17T23:11:45.975Z,11.48
2018-09-17T23:16:52.275Z,12.10
2018-09-17T23:19:22.604Z,11.18
2018-09-17T23:21:51.239Z,11.40
2018-09-17T23:24:19.912Z,11.73
2018-09-17T23:26:49.824Z,11.88
2018-09-17T23:29:18.534Z,11.93
2018-09-17T23:31:49.948Z,11.70
2018-09-17T23:34:19.864Z,12.43
2018-09-17T23:36:48.495Z,12.93
2018-09-17T23:39:17.143Z,12.45
2018-09-17T23:41:45.783Z,12.58
2018-09-17T23:44:14.402Z,12.35
2018-09-17T23:46:43.470Z,12.07
2018-09-17T23:49:12.198Z,12.10
2018-09-17T23:51:41.451Z,12.35
2018-09-17T23:54:11.114Z,11.60
2018-09-17T23:56:41.123Z,12.40
2018-09-17T23:59:11.232Z,13.43
